Long Key, Florida
Current Conditions -  °F | °C
As of 6:53 PM on Friday 24 Oct 2014 (Local Time) from KMTH Reporting Station
Overcast Overcast  
Wind Chill: 78°   Ceiling: 2600
Heat Index: 81°   Visibility: 10mi
Dew Point: 73°   Wind: 13mph
Humidity: 84%   Direction: 20°NNE
Pressure: 29.8"   Gusts: NA
Location:  24.82°N, 80.82°W
Report Text: KMTH 242253Z AUTO 02011KT 10SM BKN026 BKN033 OVC041 26/23 A2980 RMK AO2 SLP090 T02560228
Loading
Personal Weather Stations






























Interactive Weather Map
Tropical Storm Tracking
New forecast layout! Learn more

10-Day Weather Forecast

Advertisements
Track Severe Weather on mobile